Time;durP1;ratioP1;P1;durP2;ratioP2;P2;SDS_P1;SDS_P2;PMS_P1;PMS_P2;Temp;Humidity;BMP_temperature;BMP_pressure;BME280_temperature;BME280_humidity;BME280_pressure;Samples;Min_cycle;Max_cycle;Signal;HPM_P1;HPM_P2
2023/09/09 00:00:31;;;;;;;0.35;0.35;;;19.20;99.90;;;;;;5094202;28;20052;-62
2023/09/09 00:02:57;;;;;;;1.50;0.82;;;19.20;99.90;;;;;;5094065;28;20039;-62
2023/09/09 00:05:22;;;;;;;0.10;0.10;;;19.30;99.90;;;;;;5094012;28;20137;-62
2023/09/09 00:07:48;;;;;;;1.10;0.63;;;19.00;99.90;;;;;;5093817;28;20056;-62
2023/09/09 00:10:14;;;;;;;0.85;0.85;;;19.00;99.90;;;;;;5093486;28;20048;-63
2023/09/09 00:12:39;;;;;;;1.45;0.70;;;18.80;99.90;;;;;;5092653;28;20044;-62
2023/09/09 00:15:06;;;;;;;0.22;0.22;;;18.90;99.90;;;;;;5093842;28;20040;-62
2023/09/09 00:17:31;;;;;;;0.38;0.38;;;18.90;99.90;;;;;;5093794;28;20113;-62
2023/09/09 00:19:57;;;;;;;0.32;0.32;;;19.10;99.90;;;;;;5093368;28;20048;-62
2023/09/09 00:22:23;;;;;;;1.35;0.70;;;18.80;99.90;;;;;;5093692;28;20048;-63
2023/09/09 00:24:48;;;;;;;0.60;0.60;;;18.80;99.90;;;;;;5093522;28;20044;-63
2023/09/09 00:27:14;;;;;;;0.73;0.73;;;18.80;99.90;;;;;;5093660;28;20059;-62
2023/09/09 00:29:39;;;;;;;0.40;0.40;;;18.80;99.90;;;;;;5093545;28;20044;-62
2023/09/09 00:32:05;;;;;;;0.20;0.20;;;18.80;99.90;;;;;;5093476;28;20077;-62
2023/09/09 00:34:33;;;;;;;1.80;1.02;;;18.80;99.90;;;;;;5093466;28;20050;-62
2023/09/09 00:36:58;;;;;;;0.45;0.40;;;18.50;99.90;;;;;;5093434;28;20055;-62
2023/09/09 00:39:24;;;;;;;0.60;0.60;;;18.30;99.90;;;;;;5093433;28;20052;-62
2023/09/09 00:41:50;;;;;;;1.25;0.80;;;18.60;99.90;;;;;;5093305;28;20087;-62
2023/09/09 00:44:15;;;;;;;0.47;0.47;;;18.80;99.90;;;;;;5092880;28;20112;-62
2023/09/09 00:46:42;;;;;;;2.13;0.65;;;18.60;99.90;;;;;;5093210;28;20059;-62
2023/09/09 00:49:09;;;;;;;0.73;0.73;;;18.30;99.90;;;;;;5093173;28;20048;-62
2023/09/09 00:51:37;;;;;;;0.60;0.57;;;18.70;99.90;;;;;;5093108;28;20052;-62
2023/09/09 00:54:04;;;;;;;0.50;0.50;;;18.70;99.90;;;;;;5093044;28;20100;-62
2023/09/09 00:56:33;;;;;;;1.25;1.00;;;18.50;99.90;;;;;;5093009;28;20048;-62
2023/09/09 00:58:59;;;;;;;0.22;0.22;;;18.40;99.90;;;;;;5092909;28;20111;-62
2023/09/09 01:01:24;;;;;;;0.43;0.43;;;18.40;99.90;;;;;;5091604;28;20059;-62
2023/09/09 01:03:53;;;;;;;0.35;0.35;;;18.70;99.90;;;;;;5091503;28;20067;-62
2023/09/09 01:06:20;;;;;;;0.80;0.38;;;18.50;99.90;;;;;;5092563;28;20084;-62
2023/09/09 01:08:46;;;;;;;0.30;0.30;;;18.50;99.90;;;;;;5092164;28;20066;-62
2023/09/09 01:11:12;;;;;;;0.40;0.40;;;18.60;99.90;;;;;;5092759;28;20484;-62
2023/09/09 01:13:38;;;;;;;0.47;0.47;;;18.50;99.90;;;;;;5092761;28;20044;-62
2023/09/09 01:16:05;;;;;;;0.90;0.80;;;18.20;99.90;;;;;;5092639;28;20477;-62
2023/09/09 01:18:33;;;;;;;1.60;0.70;;;18.30;99.90;;;;;;5092634;28;20396;-62
2023/09/09 01:21:10;;;;;;;0.77;0.77;;;18.00;99.90;;;;;;5091563;28;20044;-62
2023/09/09 01:23:36;;;;;;;0.32;0.32;;;18.30;99.90;;;;;;5092358;28;20048;-62
2023/09/09 01:26:02;;;;;;;0.57;0.57;;;18.30;99.90;;;;;;5092464;28;20144;-62
2023/09/09 01:28:28;;;;;;;0.40;0.40;;;18.20;99.90;;;;;;5092469;28;20051;-62
2023/09/09 01:30:54;;;;;;;0.13;0.13;;;18.10;99.90;;;;;;5092410;28;20044;-61
2023/09/09 01:33:20;;;;;;;1.52;1.00;;;18.40;99.90;;;;;;5091625;28;20048;-62
2023/09/09 01:35:46;;;;;;;1.15;1.05;;;17.90;99.90;;;;;;5092498;28;20377;-62
2023/09/09 01:38:13;;;;;;;0.50;0.50;;;18.20;99.90;;;;;;5092267;28;20127;-62
2023/09/09 01:40:39;;;;;;;0.50;0.50;;;18.30;99.90;;;;;;5092229;28;20055;-62
2023/09/09 01:43:04;;;;;;;0.50;0.50;;;18.30;99.90;;;;;;5092183;28;20051;-62
2023/09/09 01:45:30;;;;;;;0.60;0.60;;;18.20;99.90;;;;;;5092055;28;20065;-62
2023/09/09 01:47:56;;;;;;;0.40;0.40;;;18.10;99.90;;;;;;5092395;28;20376;-62
2023/09/09 01:50:22;;;;;;;0.90;0.90;;;18.30;99.90;;;;;;5092063;28;20044;-62
2023/09/09 01:52:48;;;;;;;0.35;0.35;;;18.10;99.90;;;;;;5092022;28;20044;-62
2023/09/09 01:55:13;;;;;;;0.75;0.75;;;18.00;99.90;;;;;;5092071;28;20051;-62
2023/09/09 01:57:39;;;;;;;0.55;0.55;;;18.10;99.90;;;;;;5091937;28;20399;-63
2023/09/09 02:00:09;;;;;;;0.70;0.70;;;18.00;99.90;;;;;;5091881;28;20044;-62
2023/09/09 02:02:36;;;;;;;0.82;0.63;;;17.90;99.90;;;;;;5091891;28;20114;-62
2023/09/09 02:05:02;;;;;;;0.98;0.98;;;18.10;99.90;;;;;;5091828;28;20070;-62
2023/09/09 02:07:28;;;;;;;0.60;0.55;;;18.00;99.90;;;;;;5091790;28;20056;-63
2023/09/09 02:09:54;;;;;;;0.90;0.85;;;17.90;99.90;;;;;;5091707;28;20501;-62
2023/09/09 02:12:19;;;;;;;0.73;0.60;;;18.10;99.90;;;;;;5091798;28;20044;-62
2023/09/09 02:14:45;;;;;;;0.75;0.68;;;17.80;99.90;;;;;;5091736;28;20044;-62
2023/09/09 02:17:12;;;;;;;0.47;0.47;;;17.90;99.90;;;;;;5091670;28;20036;-62
2023/09/09 02:19:38;;;;;;;0.68;0.68;;;17.80;99.90;;;;;;5091668;28;20127;-62
2023/09/09 02:22:05;;;;;;;2.20;0.60;;;17.80;99.90;;;;;;5091603;28;20721;-62
2023/09/09 02:24:30;;;;;;;0.47;0.47;;;17.90;99.90;;;;;;5090316;28;20047;-62
2023/09/09 02:26:56;;;;;;;1.50;0.68;;;18.00;99.90;;;;;;5091576;28;20040;-62
2023/09/09 02:29:22;;;;;;;0.82;0.50;;;17.60;99.90;;;;;;5091593;28;20062;-62
2023/09/09 02:31:47;;;;;;;0.40;0.40;;;17.60;99.90;;;;;;5092631;28;20489;-62
2023/09/09 02:34:13;;;;;;;0.88;0.75;;;17.40;99.90;;;;;;5095784;28;20426;-62
2023/09/09 02:37:05;;;;;;;0.60;0.60;;;17.40;99.90;;;;;;5095746;28;20052;-62
2023/09/09 02:39:31;;;;;;;0.93;0.70;;;17.60;99.90;;;;;;5095663;28;20048;-62
2023/09/09 02:41:56;;;;;;;0.68;0.68;;;17.50;99.90;;;;;;5095607;28;20052;-62
2023/09/09 02:44:23;;;;;;;4.10;1.88;;;17.70;99.90;;;;;;5095778;28;20043;-63
2023/09/09 02:46:49;;;;;;;0.85;0.80;;;17.50;99.90;;;;;;5095750;28;20109;-62
2023/09/09 02:49:14;;;;;;;0.52;0.52;;;17.40;99.90;;;;;;5095513;28;20044;-62
2023/09/09 02:51:40;;;;;;;0.80;0.70;;;17.60;99.90;;;;;;5095557;28;20044;-62
2023/09/09 02:54:06;;;;;;;0.80;0.70;;;17.60;99.90;;;;;;5095541;28;20032;-63
2023/09/09 02:56:31;;;;;;;1.65;0.85;;;17.70;99.90;;;;;;5094398;28;20051;-62
2023/09/09 02:58:57;;;;;;;0.68;0.68;;;17.60;99.90;;;;;;5095548;28;20059;-62
2023/09/09 03:01:22;;;;;;;0.60;0.60;;;17.60;99.90;;;;;;5095648;28;20426;-62
2023/09/09 03:03:48;;;;;;;0.70;0.70;;;17.30;99.90;;;;;;5095171;28;20135;-62
2023/09/09 03:06:14;;;;;;;1.52;1.42;;;17.50;99.90;;;;;;5095168;28;20051;-62
2023/09/09 03:08:39;;;;;;;0.80;0.80;;;17.40;99.90;;;;;;5094758;28;20101;-62
2023/09/09 03:11:05;;;;;;;1.27;0.98;;;17.30;99.90;;;;;;5094766;28;20058;-62
2023/09/09 03:13:31;;;;;;;2.00;1.00;;;17.20;99.90;;;;;;5095073;28;20055;-62
2023/09/09 03:15:57;;;;;;;0.88;0.85;;;17.30;99.90;;;;;;5095007;28;20050;-62
2023/09/09 03:18:22;;;;;;;0.60;0.60;;;17.40;99.90;;;;;;5094934;28;20048;-62
2023/09/09 03:20:48;;;;;;;0.88;0.85;;;17.60;99.90;;;;;;5094935;28;20393;-62
2023/09/09 03:23:13;;;;;;;0.77;0.68;;;17.20;99.90;;;;;;5095197;28;20048;-62
2023/09/09 03:25:39;;;;;;;0.60;0.60;;;17.50;99.90;;;;;;5094482;28;20095;-62
2023/09/09 03:28:05;;;;;;;0.40;0.40;;;17.40;99.90;;;;;;5095141;28;20055;-62
2023/09/09 03:30:52;;;;;;;0.32;0.32;;;17.40;99.90;;;;;;5094869;28;20047;-62
2023/09/09 03:33:17;;;;;;;0.57;0.55;;;17.90;99.90;;;;;;5094782;28;20047;-62
2023/09/09 03:35:43;;;;;;;1.27;1.05;;;17.60;99.90;;;;;;5094909;28;20048;-62
2023/09/09 03:38:09;;;;;;;0.88;0.88;;;17.80;99.90;;;;;;5094907;28;20061;-62
2023/09/09 03:40:34;;;;;;;0.73;0.70;;;18.00;99.90;;;;;;5094835;28;20088;-62
2023/09/09 03:43:00;;;;;;;2.53;0.82;;;17.60;99.90;;;;;;5093395;28;20048;-62
2023/09/09 03:45:26;;;;;;;0.50;0.50;;;17.80;99.90;;;;;;5094217;28;20114;-62
2023/09/09 03:47:51;;;;;;;0.95;0.95;;;17.70;99.90;;;;;;5094450;28;20051;-62
2023/09/09 03:50:17;;;;;;;0.50;0.43;;;17.60;99.90;;;;;;5094356;28;20044;-62
2023/09/09 03:52:42;;;;;;;0.50;0.50;;;17.60;99.90;;;;;;5094286;28;20048;-62
2023/09/09 03:55:08;;;;;;;0.90;0.85;;;17.60;99.90;;;;;;5093997;28;20078;-62
2023/09/09 03:57:34;;;;;;;0.65;0.65;;;17.60;99.90;;;;;;5094275;28;20050;-62
2023/09/09 04:00:00;;;;;;;1.33;1.23;;;17.30;99.90;;;;;;5094221;28;20042;-62
2023/09/09 04:02:25;;;;;;;0.60;0.60;;;17.80;99.90;;;;;;5094196;28;20052;-62
2023/09/09 04:04:51;;;;;;;1.40;1.00;;;17.40;99.90;;;;;;5092914;28;20090;-62
2023/09/09 04:07:16;;;;;;;0.68;0.68;;;17.50;99.90;;;;;;5094025;28;20048;-62
2023/09/09 04:09:43;;;;;;;1.02;0.93;;;17.40;99.90;;;;;;5094265;28;20058;-63
2023/09/09 04:12:09;;;;;;;1.13;0.90;;;17.50;99.90;;;;;;5094107;28;20051;-62
2023/09/09 04:14:39;;;;;;;1.02;0.93;;;17.40;99.90;;;;;;5093966;28;20047;-62
2023/09/09 04:17:07;;;;;;;1.08;0.93;;;17.50;99.90;;;;;;5093921;28;20048;-62
2023/09/09 04:19:33;;;;;;;1.52;1.13;;;17.30;99.90;;;;;;5093840;28;20051;-62
2023/09/09 04:21:59;;;;;;;1.45;1.00;;;17.00;99.90;;;;;;5093789;28;20048;-62
2023/09/09 04:24:25;;;;;;;1.75;1.10;;;17.20;99.90;;;;;;5093553;28;20067;-62
2023/09/09 04:26:51;;;;;;;0.63;0.63;;;16.90;99.90;;;;;;5093567;28;20044;-62
2023/09/09 04:29:17;;;;;;;3.30;2.45;;;17.00;99.90;;;;;;5093642;28;20047;-62
2023/09/09 04:31:43;;;;;;;0.70;0.70;;;17.10;99.90;;;;;;5093572;28;20069;-62
2023/09/09 04:34:10;;;;;;;0.65;0.65;;;16.70;99.90;;;;;;5093562;28;20048;-62
2023/09/09 04:36:36;;;;;;;1.25;1.10;;;16.80;99.90;;;;;;5093433;28;20051;-62
2023/09/09 04:39:02;;;;;;;0.77;0.77;;;16.80;99.90;;;;;;5093312;28;20071;-62
2023/09/09 04:41:28;;;;;;;1.10;0.77;;;16.60;99.90;;;;;;5093349;28;20150;-62
2023/09/09 04:43:53;;;;;;;0.63;0.63;;;16.60;99.90;;;;;;5093326;28;20040;-62
2023/09/09 04:46:19;;;;;;;0.70;0.70;;;16.40;99.90;;;;;;5092969;28;20048;-62
2023/09/09 04:48:46;;;;;;;0.75;0.70;;;16.70;99.90;;;;;;5093488;28;20052;-62
2023/09/09 04:51:11;;;;;;;3.75;1.73;;;16.70;99.90;;;;;;5093198;28;20052;-62
2023/09/09 04:53:37;;;;;;;1.17;0.93;;;16.70;99.90;;;;;;5092984;28;20135;-62
2023/09/09 04:56:03;;;;;;;0.55;0.55;;;16.80;99.90;;;;;;5092646;28;20048;-62
2023/09/09 04:58:29;;;;;;;0.52;0.52;;;16.60;99.90;;;;;;5092907;28;20151;-62
2023/09/09 05:00:55;;;;;;;0.50;0.50;;;16.60;99.90;;;;;;5092799;28;20172;-62
2023/09/09 05:03:21;;;;;;;1.20;0.98;;;16.40;99.90;;;;;;5092649;28;20047;-62
2023/09/09 05:05:47;;;;;;;1.35;0.90;;;16.70;99.90;;;;;;5092618;28;20085;-62
2023/09/09 05:08:12;;;;;;;0.90;0.70;;;16.70;99.90;;;;;;5092438;28;20071;-62
2023/09/09 05:10:38;;;;;;;0.52;0.52;;;16.90;99.90;;;;;;5091318;28;20091;-62
2023/09/09 05:13:04;;;;;;;1.90;1.23;;;16.60;99.90;;;;;;5092594;28;20051;-62
2023/09/09 05:15:30;;;;;;;0.70;0.70;;;16.80;99.90;;;;;;5091174;28;20054;-62
2023/09/09 05:17:56;;;;;;;0.63;0.63;;;17.00;99.90;;;;;;5092522;28;20474;-62
2023/09/09 05:20:22;;;;;;;0.40;0.40;;;17.00;99.90;;;;;;5092566;28;20496;-62
2023/09/09 05:22:47;;;;;;;0.98;0.93;;;16.80;99.90;;;;;;5092699;28;20079;-62
2023/09/09 05:25:13;;;;;;;0.73;0.73;;;16.80;99.90;;;;;;5092400;28;20082;-62
2023/09/09 05:27:39;;;;;;;0.60;0.60;;;16.70;99.90;;;;;;5092494;28;20052;-62
2023/09/09 05:30:06;;;;;;;0.55;0.55;;;16.60;99.90;;;;;;5092388;28;20112;-62
2023/09/09 05:32:32;;;;;;;0.70;0.70;;;16.90;99.90;;;;;;5092100;28;20087;-62
2023/09/09 05:34:57;;;;;;;1.08;0.55;;;16.90;99.90;;;;;;5092343;28;20090;-62
2023/09/09 05:37:26;;;;;;;0.80;0.80;;;16.60;99.90;;;;;;5092399;28;20387;-61
2023/09/09 05:39:52;;;;;;;0.28;0.28;;;17.60;99.90;;;;;;5092296;28;20052;-62
2023/09/09 05:42:18;;;;;;;0.45;0.45;;;16.80;99.90;;;;;;5092262;28;20510;-62
2023/09/09 05:44:44;;;;;;;0.70;0.70;;;16.60;99.90;;;;;;5091821;28;20051;-62
2023/09/09 05:47:09;;;;;;;3.30;1.42;;;16.80;99.90;;;;;;5092143;28;20090;-62
2023/09/09 05:49:36;;;;;;;0.47;0.47;;;16.90;99.90;;;;;;5092094;28;20097;-62
2023/09/09 05:52:02;;;;;;;1.25;0.52;;;16.80;99.90;;;;;;5092356;28;20056;-62
2023/09/09 05:54:28;;;;;;;0.47;0.47;;;16.50;99.90;;;;;;5090967;28;20056;-62
2023/09/09 05:56:53;;;;;;;0.63;0.63;;;16.80;99.90;;;;;;5092195;28;20044;-62
2023/09/09 05:59:19;;;;;;;0.30;0.30;;;16.50;99.90;;;;;;5092005;28;20420;-62
2023/09/09 06:01:45;;;;;;;0.50;0.43;;;17.00;99.90;;;;;;5091959;28;20052;-62
2023/09/09 06:04:11;;;;;;;0.75;0.75;;;16.80;99.90;;;;;;5091907;28;20048;-63
2023/09/09 06:06:36;;;;;;;0.50;0.50;;;16.80;99.90;;;;;;5091404;28;20468;-62
2023/09/09 06:09:02;;;;;;;0.57;0.57;;;17.20;99.90;;;;;;5091947;28;20116;-62
2023/09/09 06:11:28;;;;;;;0.30;0.30;;;16.90;99.90;;;;;;5092167;28;20488;-62
2023/09/09 06:13:54;;;;;;;0.40;0.40;;;17.20;99.90;;;;;;5091902;28;20614;-62
2023/09/09 06:16:19;;;;;;;0.30;0.30;;;17.10;99.90;;;;;;5091730;28;20048;-62
2023/09/09 06:18:45;;;;;;;0.88;0.32;;;17.30;99.90;;;;;;5091689;28;20499;-62
2023/09/09 06:21:11;;;;;;;0.57;0.52;;;17.80;99.90;;;;;;5091685;28;20689;-62
2023/09/09 06:23:36;;;;;;;5.63;2.55;;;17.40;99.90;;;;;;5091615;28;20109;-63
2023/09/09 06:26:02;;;;;;;0.57;0.45;;;17.70;99.90;;;;;;5091641;28;20531;-62
2023/09/09 06:28:28;;;;;;;0.52;0.52;;;17.70;99.90;;;;;;5091584;28;20136;-62
2023/09/09 06:30:54;;;;;;;0.20;0.20;;;18.10;99.90;;;;;;5091230;28;20143;-62
2023/09/09 06:33:20;;;;;;;0.40;0.40;;;18.00;99.90;;;;;;5091580;28;20048;-62
2023/09/09 06:35:52;;;;;;;0.75;0.75;;;18.20;99.90;;;;;;5091519;28;20049;-62
2023/09/09 06:38:18;;;;;;;1.33;0.90;;;18.30;99.90;;;;;;5091813;28;20051;-62
2023/09/09 06:40:47;;;;;;;0.25;0.25;;;18.30;99.90;;;;;;5091456;28;20539;-62
2023/09/09 06:43:16;;;;;;;0.30;0.30;;;18.30;99.90;;;;;;5091479;28;20059;-62
2023/09/09 06:45:42;;;;;;;1.05;0.95;;;18.80;99.90;;;;;;5091363;28;20040;-62
2023/09/09 06:48:07;;;;;;;1.00;0.73;;;18.40;99.90;;;;;;5091390;28;20109;-62
2023/09/09 06:50:33;;;;;;;0.63;0.45;;;18.80;99.90;;;;;;5091325;28;20101;-62
2023/09/09 06:52:59;;;;;;;0.50;0.50;;;19.10;99.90;;;;;;5091373;28;20052;-62
2023/09/09 06:55:25;;;;;;;1.25;1.15;;;19.20;99.90;;;;;;5091345;28;20373;-62
2023/09/09 06:57:50;;;;;;;0.47;0.47;;;18.90;99.90;;;;;;5090305;28;20139;-62
2023/09/09 07:00:16;;;;;;;0.50;0.30;;;19.10;99.90;;;;;;5091600;28;20097;-62
2023/09/09 07:02:42;;;;;;;1.08;0.63;;;19.70;99.90;;;;;;5091576;28;20043;-62
2023/09/09 07:05:08;;;;;;;1.88;0.57;;;19.40;99.90;;;;;;5091177;28;20052;-62
2023/09/09 07:07:34;;;;;;;0.30;0.30;;;19.60;99.90;;;;;;5091248;28;20040;-62
2023/09/09 07:09:59;;;;;;;1.55;1.30;;;19.70;99.90;;;;;;5091323;28;20491;-62
2023/09/09 07:12:25;;;;;;;0.70;0.70;;;19.60;99.90;;;;;;5091279;28;20104;-62
2023/09/09 07:14:51;;;;;;;0.63;0.63;;;19.70;99.90;;;;;;5091505;28;20124;-62
2023/09/09 07:17:17;;;;;;;0.95;0.93;;;20.00;99.90;;;;;;5091475;28;20047;-62
2023/09/09 07:19:42;;;;;;;0.75;0.63;;;19.90;99.90;;;;;;5095001;28;20044;-62
2023/09/09 07:22:08;;;;;;;1.52;0.85;;;20.10;99.90;;;;;;5094877;28;20188;-62
2023/09/09 07:24:34;;;;;;;0.88;0.80;;;19.70;99.90;;;;;;5094752;28;20091;-62
2023/09/09 07:27:03;;;;;;;0.75;0.63;;;20.20;99.90;;;;;;5094820;28;20047;-62
2023/09/09 07:29:29;;;;;;;0.43;0.43;;;20.70;99.90;;;;;;5094743;28;20503;-62
2023/09/09 07:31:55;;;;;;;0.55;0.52;;;20.50;99.90;;;;;;5094718;28;20052;-62
2023/09/09 07:34:21;;;;;;;0.55;0.55;;;20.50;99.90;;;;;;5094687;28;20048;-62
2023/09/09 07:36:47;;;;;;;2.38;0.82;;;21.10;99.90;;;;;;5094648;28;20052;-62
2023/09/09 07:39:14;;;;;;;1.48;1.10;;;20.80;99.90;;;;;;5094580;28;20131;-62
2023/09/09 07:41:40;;;;;;;2.35;1.00;;;21.20;99.90;;;;;;5094520;28;20055;-62
2023/09/09 07:44:06;;;;;;;0.77;0.77;;;21.20;99.90;;;;;;5094424;28;20529;-62
2023/09/09 07:46:32;;;;;;;0.93;0.75;;;21.40;99.90;;;;;;5094450;28;20105;-62
2023/09/09 07:48:58;;;;;;;0.85;0.77;;;21.40;99.90;;;;;;5094366;28;20044;-62
2023/09/09 07:51:24;;;;;;;1.48;1.38;;;21.40;99.90;;;;;;5094584;28;20043;-62
2023/09/09 07:53:49;;;;;;;1.52;1.05;;;20.80;99.90;;;;;;5094335;28;20156;-62
2023/09/09 07:56:15;;;;;;;0.65;0.40;;;21.60;99.90;;;;;;5094232;28;20051;-62
2023/09/09 07:58:40;;;;;;;0.30;0.30;;;21.30;99.90;;;;;;5094212;28;20079;-62
2023/09/09 08:01:07;;;;;;;1.15;1.05;;;21.70;99.90;;;;;;5094083;28;20048;-62
2023/09/09 08:03:34;;;;;;;1.80;1.20;;;21.60;99.90;;;;;;5094050;28;20451;-62
2023/09/09 08:06:06;;;;;;;2.53;2.17;;;22.20;99.90;;;;;;5094070;28;20451;-62
2023/09/09 08:08:38;;;;;;;1.23;1.10;;;21.70;99.90;;;;;;5093793;28;20404;-62
2023/09/09 08:11:04;;;;;;;1.50;1.02;;;22.00;99.90;;;;;;5093969;28;20134;-62
2023/09/09 08:13:30;;;;;;;0.70;0.70;;;22.10;99.90;;;;;;5093846;28;20043;-62
2023/09/09 08:15:58;;;;;;;3.13;1.88;;;21.80;99.90;;;;;;5093690;28;20444;-62
2023/09/09 08:18:24;;;;;;;1.42;1.20;;;22.40;99.90;;;;;;5093845;28;20051;-63
2023/09/09 08:20:50;;;;;;;2.22;1.67;;;22.10;99.90;;;;;;5093745;28;20048;-62
2023/09/09 08:23:17;;;;;;;1.42;1.00;;;22.50;99.90;;;;;;5093711;28;20067;-62
2023/09/09 08:25:43;;;;;;;0.55;0.55;;;22.50;99.90;;;;;;5093638;28;20396;-63
2023/09/09 08:28:08;;;;;;;1.95;1.20;;;22.80;99.90;;;;;;5093731;28;20054;-62
2023/09/09 08:30:35;;;;;;;1.10;0.90;;;23.10;99.90;;;;;;5091685;28;20625;-62
2023/09/09 08:33:03;;;;;;;2.10;1.30;;;23.00;99.90;;;;;;5093546;28;20137;-62
2023/09/09 08:35:32;;;;;;;1.45;1.00;;;23.20;99.90;;;;;;5093579;28;20496;-63
2023/09/09 08:37:59;;;;;;;0.85;0.85;;;23.40;99.90;;;;;;5093585;28;20640;-62
2023/09/09 08:40:27;;;;;;;2.97;1.65;;;23.40;99.90;;;;;;5093482;28;20059;-62
2023/09/09 08:43:08;;;;;;;0.70;0.70;;;23.40;99.90;;;;;;5093645;28;20047;-62
2023/09/09 08:46:11;;;;;;;1.42;1.27;;;23.60;99.90;;;;;;5093745;28;20052;-61
2023/09/09 08:48:39;;;;;;;1.35;1.00;;;23.60;99.90;;;;;;5091228;28;20048;-61
2023/09/09 08:51:08;;;;;;;0.93;0.90;;;23.70;99.90;;;;;;5093284;28;20083;-63
2023/09/09 08:53:35;;;;;;;4.00;2.28;;;23.90;99.90;;;;;;5093527;28;20048;-62
2023/09/09 08:56:02;;;;;;;1.92;1.77;;;23.90;99.90;;;;;;5093160;28;20480;-63
2023/09/09 08:58:28;;;;;;;1.88;1.73;;;23.70;99.90;;;;;;5093109;28;20052;-62
2023/09/09 09:00:55;;;;;;;3.08;2.70;;;23.70;99.90;;;;;;5093090;28;20094;-62
2023/09/09 09:03:21;;;;;;;1.67;1.58;;;23.80;99.90;;;;;;5091776;28;20092;-62
2023/09/09 09:05:47;;;;;;;1.73;1.48;;;23.60;99.90;;;;;;5092968;28;20086;-61
2023/09/09 09:08:13;;;;;;;3.20;2.55;;;24.20;99.90;;;;;;5092946;28;20048;-62
2023/09/09 09:10:42;;;;;;;1.50;1.40;;;24.00;99.90;;;;;;5092924;28;20546;-61
2023/09/09 09:13:08;;;;;;;2.67;1.48;;;24.30;99.90;;;;;;5092814;28;20404;-62
2023/09/09 09:15:35;;;;;;;1.65;1.50;;;24.20;99.90;;;;;;5092788;28;20044;-62
2023/09/09 09:18:01;;;;;;;1.55;1.17;;;24.10;99.90;;;;;;5092735;28;20047;-62
2023/09/09 09:20:29;;;;;;;3.30;1.67;;;24.40;99.90;;;;;;5092690;28;20051;-62
2023/09/09 09:23:00;;;;;;;3.08;2.35;;;24.40;99.90;;;;;;5092597;28;20168;-62
2023/09/09 09:25:27;;;;;;;3.75;2.15;;;24.10;99.90;;;;;;5092814;28;20044;-62
2023/09/09 09:27:58;;;;;;;2.90;2.03;;;26.50;99.90;;;;;;5092633;28;20048;-62
2023/09/09 09:30:25;;;;;;;2.17;1.40;;;24.30;99.90;;;;;;5091338;28;20055;-62
2023/09/09 09:32:52;;;;;;;2.35;1.52;;;24.70;99.90;;;;;;5092399;28;20063;-62
2023/09/09 09:35:26;;;;;;;2.30;2.00;;;24.40;99.90;;;;;;5092460;28;20047;-61
2023/09/09 09:37:57;;;;;;;1.25;1.15;;;24.90;99.90;;;;;;5092436;28;20044;-62
2023/09/09 09:40:24;;;;;;;1.85;0.90;;;24.80;99.90;;;;;;5092252;28;20051;-62
2023/09/09 09:42:50;;;;;;;0.82;0.63;;;24.70;99.90;;;;;;5091474;28;20044;-61
2023/09/09 09:45:17;;;;;;;2.10;1.25;;;24.90;99.90;;;;;;5092123;28;20204;-61
2023/09/09 09:47:44;;;;;;;2.55;1.42;;;25.30;99.90;;;;;;5091840;28;20379;-63
2023/09/09 09:50:28;;;;;;;1.30;0.70;;;24.80;99.90;;;;;;5091911;28;20055;-62
2023/09/09 09:53:08;;;;;;;0.52;0.52;;;25.20;99.90;;;;;;5092043;28;20134;-62
2023/09/09 09:55:35;;;;;;;0.63;0.60;;;25.50;99.90;;;;;;5092099;28;20500;-62
2023/09/09 09:58:03;;;;;;;1.13;1.00;;;25.00;99.90;;;;;;5092036;28;20108;-62
2023/09/09 10:00:29;;;;;;;0.77;0.77;;;25.60;99.90;;;;;;5091991;28;20130;-62
2023/09/09 10:03:00;;;;;;;1.20;0.82;;;25.30;99.90;;;;;;5091653;28;20108;-62
2023/09/09 10:05:29;;;;;;;1.10;0.73;;;25.40;99.90;;;;;;5091999;28;20052;-61
2023/09/09 10:08:11;;;;;;;2.00;1.20;;;25.50;99.90;;;;;;5091866;28;20135;-62
2023/09/09 10:10:46;;;;;;;0.60;0.60;;;25.30;99.90;;;;;;5092065;28;20052;-62
2023/09/09 10:13:26;;;;;;;0.43;0.43;;;25.50;99.90;;;;;;5091967;28;20052;-61
2023/09/09 10:15:54;;;;;;;1.10;1.08;;;25.80;99.90;;;;;;5091858;28;20043;-61
2023/09/09 10:18:22;;;;;;;0.40;0.38;;;25.80;99.90;;;;;;5091837;28;20052;-62
2023/09/09 10:20:49;;;;;;;0.30;0.30;;;25.40;99.90;;;;;;5091771;28;20048;-62
2023/09/09 10:23:17;;;;;;;3.17;1.40;;;26.10;99.90;;;;;;5091454;28;20052;-62
2023/09/09 10:25:43;;;;;;;1.13;0.65;;;25.80;99.90;;;;;;5091630;28;20052;-62
2023/09/09 10:28:10;;;;;;;1.35;0.73;;;26.20;99.90;;;;;;5091626;28;20145;-62
2023/09/09 10:30:36;;;;;;;0.68;0.68;;;26.20;99.90;;;;;;5091635;28;20051;-62
2023/09/09 10:33:04;;;;;;;0.85;0.85;;;25.80;99.90;;;;;;5091595;28;20048;-62
2023/09/09 10:35:30;;;;;;;0.40;0.40;;;26.00;99.90;;;;;;5091577;28;20051;-62
2023/09/09 10:37:56;;;;;;;0.70;0.70;;;26.20;99.90;;;;;;5091596;28;20105;-62
2023/09/09 10:40:24;;;;;;;0.55;0.55;;;26.10;99.90;;;;;;5091578;28;20047;-61
2023/09/09 10:42:51;;;;;;;1.85;0.80;;;26.10;99.90;;;;;;5091494;28;20091;-62
2023/09/09 10:45:28;;;;;;;0.47;0.47;;;26.50;99.90;;;;;;5091465;28;20048;-62
2023/09/09 10:48:05;;;;;;;1.35;0.80;;;26.20;99.90;;;;;;5091518;28;20087;-62
2023/09/09 10:50:44;;;;;;;0.38;0.38;;;26.40;99.90;;;;;;5091507;28;20054;-62
2023/09/09 10:53:14;;;;;;;0.63;0.63;;;26.20;99.90;;;;;;5093163;28;20048;-62
2023/09/09 10:55:40;;;;;;;0.40;0.40;;;26.30;99.90;;;;;;5095497;28;20140;-62
2023/09/09 10:58:09;;;;;;;0.77;0.77;;;26.40;99.90;;;;;;5095465;28;20079;-61
2023/09/09 11:00:38;;;;;;;0.90;0.90;;;26.30;99.90;;;;;;5095457;28;20138;-62
2023/09/09 11:03:09;;;;;;;1.40;1.30;;;26.30;99.90;;;;;;5095620;28;20047;-62
2023/09/09 11:06:00;;;;;;;0.70;0.70;;;26.30;99.90;;;;;;5095444;28;20052;-62
2023/09/09 11:08:35;;;;;;;1.02;0.82;;;26.60;99.90;;;;;;5094785;28;20559;-61
2023/09/09 11:11:30;;;;;;;1.70;1.05;;;26.80;99.90;;;;;;5095258;28;20052;-61
2023/09/09 11:13:59;;;;;;;0.47;0.47;;;26.70;99.90;;;;;;5092987;28;20056;-62
2023/09/09 11:16:40;;;;;;;1.90;1.80;;;26.70;99.90;;;;;;5095127;28;20040;-62
2023/09/09 11:19:08;;;;;;;1.02;0.90;;;26.90;99.90;;;;;;5095133;28;20052;-62
2023/09/09 11:21:37;;;;;;;0.75;0.75;;;26.80;99.90;;;;;;5095014;28;20118;-62
2023/09/09 11:24:04;;;;;;;0.60;0.60;;;27.20;99.90;;;;;;5094929;28;20079;-61
2023/09/09 11:26:30;;;;;;;2.38;1.13;;;26.90;99.90;;;;;;5094921;28;20048;-61
2023/09/09 11:28:57;;;;;;;1.10;1.00;;;26.90;99.90;;;;;;5094831;28;20139;-61
2023/09/09 11:31:24;;;;;;;1.50;1.02;;;27.10;99.90;;;;;;5094818;28;20116;-62
2023/09/09 11:33:50;;;;;;;1.50;0.68;;;26.80;99.90;;;;;;5094797;28;20503;-62
2023/09/09 11:36:17;;;;;;;0.60;0.60;;;26.90;99.90;;;;;;5094368;28;20518;-61
2023/09/09 11:38:44;;;;;;;0.95;0.55;;;26.70;99.90;;;;;;5094378;28;20048;-62
2023/09/09 11:41:23;;;;;;;0.98;0.98;;;27.10;99.90;;;;;;5094626;28;20051;-62
2023/09/09 11:43:59;;;;;;;0.50;0.50;;;27.30;99.90;;;;;;5094571;28;20048;-61
2023/09/09 11:46:26;;;;;;;0.40;0.40;;;27.00;99.90;;;;;;5094270;28;20082;-61
2023/09/09 11:48:52;;;;;;;0.30;0.30;;;27.40;99.90;;;;;;5094532;28;20059;-62
2023/09/09 11:51:20;;;;;;;0.55;0.55;;;27.40;99.90;;;;;;5094442;28;20586;-61
2023/09/09 11:53:47;;;;;;;0.73;0.73;;;27.20;99.90;;;;;;5094372;28;20094;-62
2023/09/09 11:56:14;;;;;;;0.47;0.45;;;27.30;99.90;;;;;;5094603;28;20408;-62
2023/09/09 11:58:41;;;;;;;1.15;1.02;;;27.30;99.90;;;;;;5094269;28;20055;-62
2023/09/09 12:01:07;;;;;;;0.82;0.82;;;27.10;99.90;;;;;;5094221;28;20052;-62
2023/09/09 12:03:34;;;;;;;1.45;0.73;;;27.40;99.90;;;;;;5094383;28;20108;-62
2023/09/09 12:06:01;;;;;;;0.95;0.75;;;27.30;99.90;;;;;;5093321;28;20052;-62
2023/09/09 12:08:27;;;;;;;0.20;0.20;;;27.10;99.90;;;;;;5093840;28;20051;-62
2023/09/09 12:10:56;;;;;;;1.33;1.02;;;27.00;99.90;;;;;;5094130;28;20101;-62
2023/09/09 12:13:22;;;;;;;0.77;0.35;;;27.30;99.90;;;;;;5094032;28;20079;-62
2023/09/09 12:15:48;;;;;;;0.60;0.60;;;27.40;99.90;;;;;;5093976;28;20071;-62
2023/09/09 12:18:14;;;;;;;0.63;0.47;;;27.30;99.90;;;;;;5093687;28;20067;-62
2023/09/09 12:21:11;;;;;;;0.52;0.52;;;27.50;99.90;;;;;;5093876;28;20127;-62
2023/09/09 12:23:39;;;;;;;1.08;0.93;;;27.40;99.90;;;;;;5093923;28;20051;-62
2023/09/09 12:26:16;;;;;;;1.10;0.80;;;27.50;99.90;;;;;;5093816;28;20048;-62
2023/09/09 12:28:44;;;;;;;0.77;0.60;;;27.60;99.90;;;;;;5093791;28;20052;-62
2023/09/09 12:31:11;;;;;;;0.80;0.80;;;27.60;99.90;;;;;;5092477;28;20058;-62
2023/09/09 12:33:37;;;;;;;0.70;0.63;;;27.60;99.90;;;;;;5093963;28;20044;-62
2023/09/09 12:36:03;;;;;;;0.77;0.77;;;27.50;99.90;;;;;;5092406;28;20464;-62
2023/09/09 12:38:38;;;;;;;0.55;0.52;;;27.80;99.90;;;;;;5093552;28;20091;-62
2023/09/09 12:41:06;;;;;;;1.15;1.13;;;27.70;99.90;;;;;;5093909;28;20044;-61
2023/09/09 12:43:32;;;;;;;0.30;0.30;;;27.50;99.90;;;;;;5093711;28;20050;-62
2023/09/09 12:46:06;;;;;;;0.63;0.63;;;27.80;99.90;;;;;;5093421;28;20131;-62
2023/09/09 12:48:52;;;;;;;0.43;0.40;;;27.60;99.90;;;;;;5093471;28;20052;-61